Time;durP1;ratioP1;P1;durP2;ratioP2;P2;SDS_P1;SDS_P2;PMS_P1;PMS_P2;Temp;Humidity;BMP_temperature;BMP_pressure;BME280_temperature;BME280_humidity;BME280_pressure;Samples;Min_cycle;Max_cycle;Signal;HPM_P1;HPM_P2
2022/06/20 00:01:18;;;;;;;1.40;0.25;;;14.80;77.40;;;;;;5095251;28;20040;-85
2022/06/20 00:03:48;;;;;;;1.05;0.30;;;14.80;77.40;;;;;;5062006;28;20109;-85
2022/06/20 00:06:19;;;;;;;1.02;0.20;;;14.70;77.50;;;;;;5078299;28;20044;-85
2022/06/20 00:08:49;;;;;;;2.67;0.20;;;14.70;77.70;;;;;;5095002;28;20051;-85
2022/06/20 00:11:22;;;;;;;1.70;0.25;;;14.60;77.70;;;;;;5067788;28;20055;-86
2022/06/20 00:13:53;;;;;;;2.53;0.28;;;14.60;77.70;;;;;;5091796;28;20097;-85
2022/06/20 00:16:22;;;;;;;5.55;0.32;;;14.60;77.70;;;;;;5095016;28;20055;-86
2022/06/20 00:18:49;;;;;;;4.28;0.22;;;14.50;77.80;;;;;;5077998;28;20040;-85
2022/06/20 00:21:20;;;;;;;1.85;0.20;;;14.50;77.80;;;;;;5094948;28;20044;-85
2022/06/20 00:23:47;;;;;;;1.17;0.20;;;14.50;77.80;;;;;;5078077;28;20839;-85
2022/06/20 00:26:17;;;;;;;2.15;0.15;;;14.50;77.70;;;;;;5078483;28;20044;-85
2022/06/20 00:28:45;;;;;;;2.60;0.40;;;14.50;77.70;;;;;;5084515;28;20127;-85
2022/06/20 00:31:13;;;;;;;2.30;0.20;;;14.50;77.70;;;;;;5090360;28;20093;-86
2022/06/20 00:33:40;;;;;;;2.80;0.22;;;14.50;77.60;;;;;;5057860;28;20037;-85
2022/06/20 00:36:07;;;;;;;0.93;0.20;;;14.50;77.60;;;;;;5076475;28;20041;-86
2022/06/20 00:38:35;;;;;;;1.30;0.20;;;14.60;77.60;;;;;;5060847;28;20487;-86
2022/06/20 00:41:10;;;;;;;1.48;0.20;;;14.50;78.20;;;;;;5077498;28;20120;-85
2022/06/20 00:43:45;;;;;;;1.67;0.10;;;14.60;77.60;;;;;;5087163;28;20048;-86
2022/06/20 00:46:32;;;;;;;1.25;0.20;;;14.60;77.60;;;;;;5090699;28;20048;-85
2022/06/20 00:49:11;;;;;;;2.92;0.22;;;14.50;77.50;;;;;;5082207;28;20073;-85
2022/06/20 00:51:50;;;;;;;3.17;0.22;;;14.50;77.60;;;;;;5090122;28;20071;-86
2022/06/20 00:54:27;;;;;;;1.27;0.10;;;14.50;77.70;;;;;;5093458;28;20059;-85
2022/06/20 00:57:03;;;;;;;1.08;0.20;;;14.50;77.70;;;;;;5093753;28;20044;-86
2022/06/20 00:59:33;;;;;;;2.55;0.30;;;14.50;77.60;;;;;;5070283;28;20044;-86
2022/06/20 01:02:06;;;;;;;1.33;0.20;;;14.50;77.50;;;;;;5093883;28;20064;-85
2022/06/20 01:04:42;;;;;;;0.95;0.10;;;14.60;77.50;;;;;;5093928;28;20046;-86
2022/06/20 01:07:18;;;;;;;1.48;0.20;;;14.60;77.40;;;;;;5081413;28;20048;-86
2022/06/20 01:09:50;;;;;;;0.85;0.10;;;14.60;77.40;;;;;;5076988;28;20050;-86
2022/06/20 01:12:20;;;;;;;0.50;0.10;;;14.50;77.40;;;;;;5094030;28;20454;-86
2022/06/20 01:14:47;;;;;;;2.42;0.10;;;14.50;77.50;;;;;;5083565;28;20045;-86
2022/06/20 01:17:35;;;;;;;1.42;0.20;;;14.50;77.50;;;;;;5060420;28;20048;-86
2022/06/20 01:20:26;;;;;;;2.60;0.40;;;14.50;77.40;;;;;;5093762;28;20048;-85
2022/06/20 01:23:43;;;;;;;2.15;0.20;;;14.50;77.50;;;;;;5081327;28;20503;-86
2022/06/20 01:27:07;;;;;;;1.67;0.10;;;14.50;77.60;;;;;;5032460;28;20513;-86
2022/06/20 01:29:35;;;;;;;;;;;14.40;77.60;;;;;;4958099;28;20051;-86
2022/06/20 01:32:04;;;;;;;2.25;0.10;;;14.40;77.60;;;;;;4947001;28;19922;-86
2022/06/20 01:34:32;;;;;;;1.75;0.60;;;14.30;77.60;;;;;;5030892;28;20057;-86
2022/06/20 01:37:23;;;;;;;1.15;0.20;;;14.40;77.70;;;;;;5093329;28;20051;-86
2022/06/20 01:39:57;;;;;;;0.93;0.10;;;14.40;77.70;;;;;;5073487;28;20094;-86
2022/06/20 01:42:26;;;;;;;1.52;0.40;;;14.30;78.50;;;;;;5067942;28;20040;-86
2022/06/20 01:48:05;;;;;;;1.67;0.20;;;14.30;78.20;;;;;;5093278;28;20051;-86
2022/06/20 01:50:33;;;;;;;1.30;0.20;;;14.20;78.50;;;;;;5093277;28;20055;-87
2022/06/20 01:53:03;;;;;;;0.88;0.20;;;14.20;78.70;;;;;;5060107;28;20040;-86
2022/06/20 01:55:31;;;;;;;2.28;0.20;;;14.20;78.80;;;;;;5076522;28;20161;-87
2022/06/20 01:58:10;;;;;;;1.13;0.25;;;14.20;78.90;;;;;;5060299;28;20139;-86
2022/06/20 02:00:38;;;;;;;0.95;0.10;;;14.20;78.90;;;;;;5079245;28;20047;-86
2022/06/20 02:03:08;;;;;;;0.50;0.13;;;14.20;79.00;;;;;;5093064;28;20044;-86
2022/06/20 02:05:36;;;;;;;0.57;0.10;;;14.20;79.10;;;;;;5093218;28;20478;-86
2022/06/20 02:08:07;;;;;;;0.80;0.20;;;14.20;79.80;;;;;;5076592;28;20047;-86
2022/06/20 02:10:49;;;;;;;0.95;0.10;;;14.10;79.30;;;;;;5076142;28;20480;-86
2022/06/20 02:13:17;;;;;;;1.92;0.20;;;14.10;79.50;;;;;;5093178;28;20059;-86
2022/06/20 02:15:48;;;;;;;2.47;0.15;;;14.10;79.70;;;;;;5043569;28;20101;-87
2022/06/20 02:18:17;;;;;;;1.27;0.20;;;14.10;79.80;;;;;;5076254;28;20056;-86
2022/06/20 02:20:49;;;;;;;0.98;0.20;;;14.00;79.80;;;;;;5058361;28;20039;-86
2022/06/20 02:23:24;;;;;;;1.40;0.28;;;14.10;79.90;;;;;;5092696;28;20054;-86
2022/06/20 02:25:53;;;;;;;1.73;0.20;;;14.10;80.00;;;;;;5092631;28;20488;-85
2022/06/20 02:28:47;;;;;;;2.45;0.20;;;14.00;80.00;;;;;;5076016;28;20048;-86
2022/06/20 02:31:17;;;;;;;0.57;0.13;;;14.10;80.00;;;;;;5086247;28;20515;-85
2022/06/20 02:33:47;;;;;;;1.75;0.10;;;14.00;80.00;;;;;;5072668;28;20037;-86
2022/06/20 02:36:14;;;;;;;1.30;0.13;;;14.10;80.00;;;;;;5087926;28;20051;-86
2022/06/20 02:38:43;;;;;;;0.90;0.20;;;14.10;80.00;;;;;;5075726;28;20113;-86
2022/06/20 02:41:11;;;;;;;0.30;0.10;;;14.10;80.10;;;;;;5059291;28;20143;-86
2022/06/20 02:44:05;;;;;;;1.30;0.20;;;14.10;80.10;;;;;;5092414;28;20051;-86
2022/06/20 02:46:35;;;;;;;3.22;0.30;;;14.10;80.20;;;;;;5075596;28;20448;-86
2022/06/20 02:49:09;;;;;;;1.52;0.25;;;14.10;80.20;;;;;;5059204;28;20073;-86
2022/06/20 02:51:38;;;;;;;1.65;0.20;;;14.20;80.20;;;;;;5092184;28;20043;-86
2022/06/20 02:54:10;;;;;;;1.98;0.10;;;14.20;80.20;;;;;;5093059;28;20480;-85
2022/06/20 02:56:43;;;;;;;1.27;0.20;;;14.20;80.10;;;;;;5091970;28;20048;-85
2022/06/20 02:59:21;;;;;;;1.17;0.20;;;14.30;80.20;;;;;;5092124;28;20118;-86
2022/06/20 03:01:54;;;;;;;2.90;0.20;;;14.30;80.00;;;;;;5074835;28;20040;-80
2022/06/20 03:04:22;;;;;;;2.38;0.30;;;14.30;80.00;;;;;;5092101;28;20094;-80
2022/06/20 03:07:00;;;;;;;2.70;0.20;;;14.30;79.90;;;;;;5091711;28;20048;-80
2022/06/20 03:09:34;;;;;;;3.05;0.22;;;14.40;79.90;;;;;;5092039;28;20039;-80
2022/06/20 03:12:05;;;;;;;1.40;0.10;;;14.40;79.80;;;;;;5091554;28;20488;-80
2022/06/20 03:14:36;;;;;;;1.00;0.20;;;14.50;79.70;;;;;;5074794;28;20075;-81
2022/06/20 03:17:06;;;;;;;1.02;0.10;;;14.50;79.70;;;;;;5074712;28;20044;-80
2022/06/20 03:19:37;;;;;;;2.13;0.20;;;14.50;79.60;;;;;;5074884;28;20611;-80
2022/06/20 03:22:09;;;;;;;1.35;0.20;;;14.50;79.60;;;;;;5091508;28;20446;-80
2022/06/20 03:24:37;;;;;;;1.98;0.25;;;14.50;79.40;;;;;;5091444;28;20109;-81
2022/06/20 03:27:06;;;;;;;1.02;0.10;;;14.60;79.50;;;;;;5071932;28;20132;-80
2022/06/20 03:29:38;;;;;;;2.92;0.25;;;14.60;79.40;;;;;;5091490;28;20064;-80
2022/06/20 03:32:06;;;;;;;2.35;0.20;;;14.60;79.20;;;;;;5074191;28;20040;-80
2022/06/20 03:34:33;;;;;;;0.95;0.10;;;14.60;79.10;;;;;;5074584;28;20040;-81
2022/06/20 03:37:06;;;;;;;1.85;0.20;;;14.60;79.10;;;;;;5073239;28;20048;-81
2022/06/20 03:39:35;;;;;;;1.73;0.20;;;14.50;79.00;;;;;;5090923;28;20457;-80
2022/06/20 03:42:03;;;;;;;2.10;0.22;;;14.50;79.10;;;;;;5074545;28;20072;-80
2022/06/20 03:44:35;;;;;;;1.08;0.30;;;14.50;79.20;;;;;;5074708;28;20051;-81
2022/06/20 03:47:22;;;;;;;0.75;0.20;;;14.40;79.20;;;;;;5074697;28;20126;-86
2022/06/20 03:50:10;;;;;;;1.77;0.25;;;14.30;79.20;;;;;;5075048;28;20040;-86
2022/06/20 03:52:47;;;;;;;1.40;0.22;;;14.20;79.40;;;;;;5067685;28;20041;-86
2022/06/20 03:55:24;;;;;;;3.08;0.30;;;14.20;79.60;;;;;;5089458;28;20051;-80
2022/06/20 03:58:00;;;;;;;0.70;0.20;;;14.10;79.70;;;;;;5074344;28;20055;-81
2022/06/20 04:00:54;;;;;;;2.60;0.25;;;14.00;79.80;;;;;;5091244;28;20043;-80
2022/06/20 04:03:42;;;;;;;0.95;0.30;;;13.90;80.40;;;;;;5061081;28;20052;-80
2022/06/20 04:06:41;;;;;;;2.08;0.30;;;13.90;80.00;;;;;;5091144;28;20040;-81
2022/06/20 04:12:44;;;;;;;0.80;0.20;;;13.80;80.10;;;;;;5090906;28;20045;-81
2022/06/20 04:15:23;;;;;;;1.13;0.20;;;13.90;80.00;;;;;;5060073;28;20083;-81
2022/06/20 04:20:51;;;;;;;0.90;0.30;;;13.90;80.00;;;;;;5088949;28;20051;-81
2022/06/20 04:23:47;;;;;;;1.38;0.45;;;13.90;80.00;;;;;;5070648;28;20064;-79
2022/06/20 04:26:40;;;;;;;2.53;0.40;;;13.90;80.00;;;;;;5089505;28;20040;-84
2022/06/20 04:29:23;;;;;;;3.17;0.30;;;14.00;79.90;;;;;;5080811;28;20044;-87
2022/06/20 04:32:20;;;;;;;1.10;0.40;;;14.10;79.80;;;;;;5075835;28;20044;-87
2022/06/20 04:35:17;;;;;;;3.70;0.30;;;14.20;79.60;;;;;;5064388;28;20057;-88
2022/06/20 04:38:01;;;;;;;2.10;0.45;;;14.40;79.20;;;;;;5048324;28;20044;-87
2022/06/20 04:40:46;;;;;;;3.53;0.40;;;14.50;79.20;;;;;;5067967;28;20075;-87
2022/06/20 04:43:27;;;;;;;1.88;0.40;;;14.50;79.20;;;;;;5089424;28;20044;-87
2022/06/20 04:46:25;;;;;;;2.03;0.40;;;14.50;79.20;;;;;;5085876;28;20048;-88
2022/06/20 04:48:52;;;;;;;0.20;0.13;;;14.50;79.20;;;;;;5074801;28;20140;-87
2022/06/20 04:51:34;;;;;;;2.67;0.40;;;14.50;79.20;;;;;;5048523;28;20046;-81
2022/06/20 04:54:03;;;;;;;1.75;0.20;;;14.50;79.20;;;;;;5078496;28;20065;-80
2022/06/20 04:56:31;;;;;;;1.92;0.28;;;14.60;79.30;;;;;;5081223;28;20074;-83
2022/06/20 04:59:06;;;;;;;1.70;0.30;;;14.60;79.30;;;;;;5078332;28;20139;-87
2022/06/20 05:01:36;;;;;;;1.05;0.30;;;14.60;79.30;;;;;;5078179;28;20411;-88
2022/06/20 05:04:11;;;;;;;1.02;0.30;;;14.50;79.20;;;;;;5081445;28;20052;-87
2022/06/20 05:06:41;;;;;;;1.85;0.40;;;14.60;79.30;;;;;;5094962;28;20040;-87
2022/06/20 05:09:16;;;;;;;3.13;0.30;;;14.70;79.20;;;;;;5085713;28;20052;-87
2022/06/20 05:12:14;;;;;;;1.98;0.35;;;14.80;79.10;;;;;;5078047;28;20048;-87
2022/06/20 05:15:04;;;;;;;3.55;0.32;;;14.90;78.80;;;;;;5093552;28;20064;-82
2022/06/20 05:17:34;;;;;;;4.13;0.50;;;14.90;78.80;;;;;;5094048;28;20416;-82
2022/06/20 05:20:08;;;;;;;2.53;0.50;;;14.90;78.70;;;;;;5093666;28;20393;-83
2022/06/20 05:22:43;;;;;;;3.00;0.50;;;15.00;78.80;;;;;;5076713;28;20392;-84
2022/06/20 05:25:18;;;;;;;4.13;0.40;;;15.10;78.70;;;;;;5082491;28;20396;-80
2022/06/20 05:27:53;;;;;;;2.33;0.40;;;15.20;78.40;;;;;;5089223;28;20048;-83
2022/06/20 05:30:25;;;;;;;2.65;0.30;;;15.40;78.20;;;;;;5093530;28;20408;-82
2022/06/20 05:33:17;;;;;;;3.60;0.45;;;15.50;78.00;;;;;;5093523;28;20048;-83
2022/06/20 05:36:18;;;;;;;1.67;0.30;;;15.50;77.70;;;;;;5093453;28;20040;-83
2022/06/20 05:39:01;;;;;;;1.80;0.47;;;15.60;77.70;;;;;;5081588;28;20442;-83
2022/06/20 05:41:28;;;;;;;2.35;0.35;;;15.60;77.50;;;;;;5093608;28;20055;-83
2022/06/20 05:43:56;;;;;;;0.80;0.30;;;15.60;77.50;;;;;;5076672;28;20062;-83
2022/06/20 05:46:41;;;;;;;1.83;0.25;;;15.70;77.50;;;;;;5076384;28;20127;-82
2022/06/20 05:49:15;;;;;;;1.85;0.30;;;15.70;77.50;;;;;;5093298;28;20071;-82
2022/06/20 05:51:44;;;;;;;2.22;0.50;;;15.80;77.40;;;;;;5092911;28;20059;-81
2022/06/20 05:54:23;;;;;;;1.67;0.30;;;15.70;77.30;;;;;;5075907;28;20059;-80
2022/06/20 05:57:15;;;;;;;0.70;0.30;;;15.70;77.20;;;;;;5076064;28;20500;-82
2022/06/20 05:59:48;;;;;;;2.03;0.25;;;15.70;77.40;;;;;;5087522;28;20040;-83
2022/06/20 06:02:31;;;;;;;1.48;0.30;;;15.70;77.30;;;;;;5092879;28;20036;-81
2022/06/20 06:05:01;;;;;;;1.52;0.30;;;15.80;77.20;;;;;;5092804;28;20040;-83
2022/06/20 06:08:01;;;;;;;2.30;0.30;;;15.90;77.10;;;;;;5092928;28;20063;-83
2022/06/20 06:10:48;;;;;;;2.05;0.40;;;15.90;76.80;;;;;;5053974;28;20052;-81
2022/06/20 06:13:40;;;;;;;3.38;0.30;;;15.90;76.70;;;;;;5070187;28;20083;-81
2022/06/20 06:19:22;;;;;;;2.85;0.20;;;15.80;76.80;;;;;;5101082;28;20044;-77
2022/06/20 06:21:52;;;;;;;1.67;0.30;;;15.90;76.70;;;;;;5075482;28;20075;-77
2022/06/20 06:24:24;;;;;;;2.50;0.30;;;16.10;76.50;;;;;;5092448;28;20496;-77
2022/06/20 06:26:56;;;;;;;0.88;0.40;;;16.20;76.20;;;;;;5092393;28;20040;-77
2022/06/20 06:29:26;;;;;;;1.13;0.20;;;16.50;75.90;;;;;;5093655;28;20075;-77
2022/06/20 06:31:59;;;;;;;1.13;0.28;;;16.80;75.60;;;;;;5092098;28;20146;-77
2022/06/20 06:34:55;;;;;;;2.72;0.40;;;17.20;75.00;;;;;;5091945;28;20488;-77
2022/06/20 06:37:31;;;;;;;1.80;0.40;;;17.40;74.10;;;;;;5082876;28;20545;-84
2022/06/20 06:40:13;;;;;;;2.22;0.50;;;17.60;74.00;;;;;;5093338;28;20476;-83
2022/06/20 06:42:40;;;;;;;;;;;17.70;72.80;;;;;;5075999;28;20101;-84
2022/06/20 06:45:17;;;;;;;2.22;0.60;;;17.60;72.60;;;;;;5075438;28;19920;-84
2022/06/20 06:48:17;;;;;;;2.58;0.63;;;17.50;72.80;;;;;;5092088;28;20088;-83
2022/06/20 06:51:19;;;;;;;2.45;0.40;;;17.40;72.70;;;;;;5070080;28;20047;-84
2022/06/20 06:53:59;;;;;;;2.38;0.55;;;17.30;73.10;;;;;;5091715;28;20113;-84
2022/06/20 06:56:50;;;;;;;3.80;0.50;;;17.20;73.20;;;;;;5092273;28;20454;-84
2022/06/20 06:59:23;;;;;;;2.25;0.50;;;17.10;73.40;;;;;;5081125;28;20036;-84
2022/06/20 07:01:53;;;;;;;2.53;0.35;;;17.30;73.40;;;;;;5091948;28;20036;-84
2022/06/20 07:04:31;;;;;;;2.83;0.52;;;17.40;73.10;;;;;;5060682;28;20094;-84
2022/06/20 07:07:12;;;;;;;3.25;0.50;;;17.70;72.70;;;;;;5090178;28;20123;-84
2022/06/20 07:09:51;;;;;;;2.10;0.60;;;17.90;71.90;;;;;;5071561;28;20110;-84
2022/06/20 07:12:35;;;;;;;2.20;0.35;;;18.10;71.70;;;;;;5071629;28;20051;-84
2022/06/20 07:15:12;;;;;;;2.78;0.75;;;18.10;71.10;;;;;;5092153;28;20048;-84
2022/06/20 07:17:56;;;;;;;2.58;0.70;;;18.10;71.30;;;;;;5094871;28;20352;-84
2022/06/20 07:20:35;;;;;;;4.30;1.00;;;18.10;71.20;;;;;;5091523;28;20489;-84
2022/06/20 07:23:05;;;;;;;3.05;0.90;;;18.00;71.00;;;;;;5092931;28;20085;-84
2022/06/20 07:25:37;;;;;;;1.92;0.95;;;18.00;71.10;;;;;;5074845;28;20040;-84
2022/06/20 07:28:35;;;;;;;2.28;0.55;;;18.00;70.60;;;;;;5091402;28;20048;-84
2022/06/20 07:31:23;;;;;;;2.58;0.80;;;18.00;70.40;;;;;;5091425;28;20046;-84
2022/06/20 07:34:01;;;;;;;2.60;0.82;;;18.00;70.30;;;;;;5091254;28;20093;-84
2022/06/20 07:36:38;;;;;;;1.50;0.60;;;18.10;70.10;;;;;;5092635;28;20036;-83
2022/06/20 07:39:13;;;;;;;2.67;0.70;;;18.20;70.10;;;;;;5091443;28;20051;-84
2022/06/20 07:41:49;;;;;;;3.25;0.63;;;18.30;69.60;;;;;;5068403;28;20119;-84
2022/06/20 07:44:29;;;;;;;2.85;0.80;;;18.50;69.40;;;;;;5083076;28;20098;-84
2022/06/20 07:47:10;;;;;;;4.88;0.80;;;18.70;68.60;;;;;;5092385;28;20044;-84
2022/06/20 07:49:56;;;;;;;2.45;0.70;;;18.90;68.30;;;;;;5091243;28;20117;-84
2022/06/20 07:52:30;;;;;;;2.53;0.77;;;19.10;67.90;;;;;;5071264;28;20105;-84
2022/06/20 07:55:02;;;;;;;3.92;0.90;;;19.20;66.70;;;;;;5085935;28;20048;-84
2022/06/20 07:57:37;;;;;;;4.20;0.75;;;19.00;66.30;;;;;;5092300;28;20044;-85
2022/06/20 08:00:14;;;;;;;3.05;0.90;;;18.70;66.50;;;;;;5091136;28;20482;-84
2022/06/20 08:02:48;;;;;;;3.65;0.90;;;18.40;67.20;;;;;;5090986;28;20458;-84
2022/06/20 08:05:28;;;;;;;3.50;0.90;;;18.20;67.30;;;;;;5091243;28;20457;-84
2022/06/20 08:08:12;;;;;;;4.15;1.20;;;18.20;68.00;;;;;;5091385;28;20081;-84
2022/06/20 08:11:11;;;;;;;3.08;0.90;;;18.20;66.60;;;;;;5091097;28;20040;-84
2022/06/20 08:13:44;;;;;;;3.63;1.00;;;18.30;66.60;;;;;;5091110;28;20051;-84
2022/06/20 08:16:24;;;;;;;3.78;0.82;;;18.40;66.50;;;;;;5092303;28;20052;-84
2022/06/20 08:18:52;;;;;;;4.90;1.00;;;18.60;65.80;;;;;;5094385;28;20484;-84
2022/06/20 08:21:30;;;;;;;2.58;1.10;;;18.80;65.20;;;;;;5058350;28;20476;-84
2022/06/20 08:24:07;;;;;;;3.03;1.08;;;19.00;63.20;;;;;;5096174;28;20476;-84
2022/06/20 08:26:50;;;;;;;4.13;0.90;;;19.10;63.10;;;;;;5094829;28;20036;-84
2022/06/20 08:29:25;;;;;;;3.75;1.15;;;19.30;62.60;;;;;;5094764;28;20051;-85
2022/06/20 08:31:58;;;;;;;4.43;1.10;;;19.30;61.50;;;;;;5096150;28;20044;-84
2022/06/20 08:34:35;;;;;;;3.42;1.10;;;19.10;61.90;;;;;;5077824;28;20051;-84
2022/06/20 08:37:24;;;;;;;3.05;1.13;;;19.00;62.50;;;;;;5083705;28;20040;-84
2022/06/20 08:40:13;;;;;;;3.28;1.05;;;19.10;62.70;;;;;;5094354;28;20135;-84
2022/06/20 08:42:49;;;;;;;1.90;0.60;;;19.30;62.50;;;;;;5094690;28;20044;-84
2022/06/20 08:46:03;;;;;;;2.70;0.70;;;19.50;61.90;;;;;;5082694;28;20118;-83
2022/06/20 08:49:09;;;;;;;2.88;0.70;;;19.60;61.40;;;;;;5074266;28;20036;-85
2022/06/20 08:52:15;;;;;;;3.67;0.80;;;19.70;60.30;;;;;;5040588;28;20047;-84
2022/06/20 08:55:16;;;;;;;4.35;1.10;;;19.50;60.60;;;;;;5094297;28;20044;-84
2022/06/20 08:58:13;;;;;;;5.72;1.08;;;19.30;60.50;;;;;;5086154;28;20036;-87
2022/06/20 09:01:01;;;;;;;4.00;0.93;;;19.20;60.20;;;;;;5095513;28;20044;-86
2022/06/20 09:03:30;;;;;;;3.55;0.82;;;19.40;59.40;;;;;;5092456;28;20389;-85
2022/06/20 09:06:24;;;;;;;2.17;0.63;;;19.70;59.20;;;;;;5095625;28;20040;-87
2022/06/20 09:09:29;;;;;;;3.95;0.90;;;19.90;58.90;;;;;;5077651;28;20044;-88
2022/06/20 09:12:17;;;;;;;3.58;0.60;;;20.20;58.80;;;;;;5095389;28;20049;-87
2022/06/20 09:14:51;;;;;;;1.98;0.50;;;20.20;58.20;;;;;;5095081;28;20047;-88
2022/06/20 09:17:55;;;;;;;2.28;0.50;;;20.30;58.00;;;;;;5078208;28;20048;-85
2022/06/20 09:20:48;;;;;;;2.40;0.88;;;20.50;57.90;;;;;;5089259;28;20081;-85
2022/06/20 09:23:57;;;;;;;2.78;0.80;;;20.50;57.50;;;;;;5095060;28;20554;-87
2022/06/20 09:26:35;;;;;;;1.10;0.45;;;20.50;57.50;;;;;;5094449;28;20090;-86
2022/06/20 09:29:28;;;;;;;2.58;0.70;;;20.50;57.30;;;;;;5076996;28;20044;-87
2022/06/20 09:32:11;;;;;;;1.73;0.60;;;20.70;57.10;;;;;;5075450;28;20064;-86
2022/06/20 09:35:02;;;;;;;;;;;21.00;56.60;;;;;;5090637;28;20044;-87
2022/06/20 09:37:51;;;;;;;3.30;0.60;;;21.20;56.20;;;;;;5094252;28;19942;-88
2022/06/20 09:40:57;;;;;;;3.10;0.55;;;21.20;55.90;;;;;;5074091;28;20052;-89
2022/06/20 09:44:00;;;;;;;2.22;0.73;;;21.40;55.40;;;;;;5070848;28;20051;-89
2022/06/20 09:46:40;;;;;;;3.75;0.60;;;21.60;55.30;;;;;;5089614;28;20044;-89
2022/06/20 09:49:33;;;;;;;2.97;0.82;;;21.50;55.00;;;;;;5093970;28;20044;-89
2022/06/20 09:52:09;;;;;;;2.30;0.75;;;21.10;55.10;;;;;;5093985;28;20058;-89
2022/06/20 09:55:13;;;;;;;2.58;0.73;;;21.00;55.50;;;;;;5094451;28;20068;-89
2022/06/20 09:58:05;;;;;;;2.55;0.88;;;21.10;54.50;;;;;;5083548;28;20404;-88
2022/06/20 10:00:47;;;;;;;5.55;1.13;;;21.30;54.70;;;;;;5093396;28;20048;-88
2022/06/20 10:03:49;;;;;;;4.35;1.08;;;21.20;53.40;;;;;;5094711;28;20071;-87
2022/06/20 10:06:34;;;;;;;4.43;0.82;;;20.80;53.40;;;;;;5089589;28;20044;-87
2022/06/20 10:09:10;;;;;;;4.05;0.93;;;20.80;54.10;;;;;;5087549;28;20048;-86
2022/06/20 10:12:15;;;;;;;4.38;1.20;;;20.90;53.80;;;;;;5073511;28;20404;-89
2022/06/20 10:15:14;;;;;;;3.45;0.90;;;21.00;53.80;;;;;;5083592;28;20078;-88
2022/06/20 10:17:57;;;;;;;2.95;0.60;;;20.90;53.60;;;;;;5074799;28;20047;-89
2022/06/20 10:20:50;;;;;;;2.35;0.63;;;20.90;54.10;;;;;;5070846;28;20427;-88
2022/06/20 10:23:49;;;;;;;2.15;0.50;;;21.10;53.80;;;;;;5092876;28;20171;-86
2022/06/20 10:26:22;;;;;;;1.90;0.70;;;21.10;53.10;;;;;;5092733;28;20071;-87
2022/06/20 10:28:53;;;;;;;1.45;0.47;;;21.20;53.20;;;;;;5092749;28;20047;-87
2022/06/20 10:31:38;;;;;;;1.85;0.77;;;21.30;53.20;;;;;;5092916;28;20074;-91
2022/06/20 10:34:27;;;;;;;2.50;0.60;;;21.70;52.90;;;;;;5093128;28;20048;-86
2022/06/20 10:37:22;;;;;;;3.28;0.50;;;21.90;51.10;;;;;;5063141;28;20076;-87
2022/06/20 10:40:14;;;;;;;2.25;0.52;;;22.00;51.10;;;;;;5092960;28;20051;-87
2022/06/20 10:42:58;;;;;;;0.95;0.40;;;22.10;50.90;;;;;;5092429;28;20083;-86
2022/06/20 10:45:41;;;;;;;1.60;0.50;;;22.10;51.00;;;;;;5079386;28;20135;-87
2022/06/20 10:48:14;;;;;;;1.63;0.50;;;22.20;50.40;;;;;;5092198;28;20348;-86
2022/06/20 10:51:06;;;;;;;2.08;0.43;;;22.40;50.00;;;;;;5075637;28;20055;-88
2022/06/20 10:53:55;;;;;;;2.13;0.40;;;22.70;49.80;;;;;;5092529;28;20055;-87
2022/06/20 10:56:38;;;;;;;1.73;0.55;;;22.50;49.30;;;;;;5089996;28;20044;-87
2022/06/20 10:59:05;;;;;;;1.42;0.60;;;22.50;49.90;;;;;;5090766;28;20486;-90
2022/06/20 11:01:56;;;;;;;1.67;0.47;;;22.60;49.50;;;;;;5067754;28;20089;-89
2022/06/20 11:04:49;;;;;;;1.80;0.40;;;22.50;48.90;;;;;;5065293;28;20381;-88
2022/06/20 11:07:35;;;;;;;0.95;0.30;;;22.50;48.40;;;;;;5088454;28;20048;-88
2022/06/20 11:10:35;;;;;;;1.27;0.35;;;22.50;48.50;;;;;;5075365;28;20044;-86
2022/06/20 11:13:25;;;;;;;1.80;0.40;;;22.30;47.90;;;;;;5077366;28;20060;-88
2022/06/20 11:16:20;;;;;;;1.52;0.30;;;22.10;48.30;;;;;;5079526;28;20079;-88
2022/06/20 11:19:16;;;;;;;1.25;0.43;;;22.20;48.30;;;;;;5092363;28;20143;-88
2022/06/20 11:22:10;;;;;;;3.22;0.60;;;22.30;48.20;;;;;;5075563;28;20143;-89
2022/06/20 11:24:43;;;;;;;3.50;0.60;;;22.40;47.50;;;;;;5075591;28;20055;-87
2022/06/20 11:27:28;;;;;;;2.85;0.50;;;22.20;47.60;;;;;;5092391;28;20514;-88
2022/06/20 11:30:23;;;;;;;1.45;0.40;;;22.10;48.00;;;;;;5092429;28;20040;-87
2022/06/20 11:33:14;;;;;;;3.10;0.68;;;22.10;48.30;;;;;;5092101;28;20044;-88
2022/06/20 11:36:07;;;;;;;1.88;0.50;;;22.30;48.00;;;;;;5075856;28;20407;-88
2022/06/20 11:39:02;;;;;;;2.67;0.60;;;22.20;47.80;;;;;;5075264;28;20040;-88
2022/06/20 11:41:40;;;;;;;2.35;0.55;;;22.00;48.30;;;;;;5074924;28;20066;-86
2022/06/20 11:44:19;;;;;;;2.50;0.65;;;21.70;48.70;;;;;;5091518;28;20055;-87
2022/06/20 11:47:03;;;;;;;1.27;0.70;;;21.60;49.10;;;;;;5092013;28;20143;-87
2022/06/20 11:50:00;;;;;;;2.13;0.57;;;21.90;48.50;;;;;;5092201;28;20105;-87
2022/06/20 11:52:43;;;;;;;2.83;0.35;;;22.20;48.30;;;;;;5093658;28;20044;-87
2022/06/20 11:55:33;;;;;;;0.90;0.40;;;22.30;48.40;;;;;;5096977;28;20048;-88
2022/06/20 11:58:32;;;;;;;1.75;0.45;;;22.20;48.60;;;;;;5079366;28;20044;-87
2022/06/20 12:01:13;;;;;;;1.70;0.43;;;21.80;49.00;;;;;;5067132;28;20064;-88
2022/06/20 12:04:01;;;;;;;1.77;0.50;;;22.20;48.90;;;;;;5093858;28;20052;-85
2022/06/20 12:06:35;;;;;;;1.73;0.43;;;22.70;48.30;;;;;;5079121;28;20061;-87
2022/06/20 12:09:19;;;;;;;3.33;0.47;;;23.20;47.70;;;;;;5098187;28;20063;-87
2022/06/20 12:12:12;;;;;;;1.75;0.50;;;23.80;46.50;;;;;;5082449;28;20052;-90
2022/06/20 12:15:02;;;;;;;1.95;0.50;;;24.40;45.50;;;;;;5069572;28;20051;-78
2022/06/20 12:18:04;;;;;;;1.88;0.50;;;25.00;44.70;;;;;;5094851;28;20050;-78
2022/06/20 12:23:39;;;;;;;3.35;0.70;;;25.30;43.70;;;;;;5095284;28;20120;-80
2022/06/20 12:26:20;;;;;;;1.67;0.45;;;25.60;44.00;;;;;;5082907;28;20089;-80
2022/06/20 12:28:52;;;;;;;2.00;0.47;;;25.70;43.20;;;;;;5094983;28;20097;-79
2022/06/20 12:31:24;;;;;;;;;;;25.60;42.10;;;;;;5095247;28;20438;-80
2022/06/20 12:33:55;;;;;;;2.42;0.60;;;24.90;42.50;;;;;;5096084;28;19920;-81
2022/06/20 12:36:29;;;;;;;1.40;0.38;;;24.20;43.40;;;;;;5095955;28;20043;-79
2022/06/20 12:39:15;;;;;;;2.00;0.50;;;23.80;44.30;;;;;;5096050;28;20044;-79
2022/06/20 12:41:46;;;;;;;2.03;0.60;;;23.40;44.80;;;;;;5094710;28;20036;-81
2022/06/20 12:44:35;;;;;;;1.20;0.38;;;23.10;44.90;;;;;;5094572;28;20488;-79
2022/06/20 12:47:05;;;;;;;1.83;0.40;;;23.00;45.40;;;;;;5074208;28;20500;-79
2022/06/20 12:50:08;;;;;;;3.05;0.60;;;23.10;45.80;;;;;;5088827;28;20510;-81
2022/06/20 12:53:02;;;;;;;1.73;0.45;;;23.40;45.40;;;;;;5050329;28;20847;-80
2022/06/20 12:56:03;;;;;;;2.72;0.45;;;23.90;44.60;;;;;;5079198;28;20502;-80
2022/06/20 12:58:49;;;;;;;3.63;0.50;;;23.70;44.50;;;;;;5090906;28;20489;-81
2022/06/20 13:01:48;;;;;;;2.35;0.65;;;23.20;44.80;;;;;;5075109;28;20041;-80
2022/06/20 13:04:30;;;;;;;1.88;0.40;;;22.90;45.70;;;;;;5081252;28;20094;-80
2022/06/20 13:07:16;;;;;;;2.45;0.70;;;22.80;46.10;;;;;;5095285;28;20097;-79
2022/06/20 13:10:23;;;;;;;2.65;0.50;;;22.60;46.20;;;;;;5094230;28;20098;-80
2022/06/20 13:13:14;;;;;;;1.42;0.32;;;22.80;46.50;;;;;;5057353;28;20565;-80
2022/06/20 13:15:50;;;;;;;2.60;0.50;;;23.80;46.10;;;;;;5093672;28;20097;-81
2022/06/20 13:18:29;;;;;;;1.48;0.57;;;24.50;44.90;;;;;;5095195;28;20047;-81
2022/06/20 13:21:09;;;;;;;2.97;0.60;;;24.40;44.60;;;;;;5095222;28;20040;-81
2022/06/20 13:23:49;;;;;;;3.38;0.57;;;23.90;45.30;;;;;;5094070;28;20043;-81
2022/06/20 13:26:53;;;;;;;2.10;0.55;;;23.40;46.10;;;;;;5073684;28;20040;-80
2022/06/20 13:29:45;;;;;;;3.47;0.50;;;23.00;46.60;;;;;;5074733;28;20060;-81
2022/06/20 13:32:39;;;;;;;2.22;0.40;;;22.90;47.20;;;;;;5095005;28;20134;-81
2022/06/20 13:35:12;;;;;;;2.50;0.40;;;22.70;47.40;;;;;;5093759;28;20079;-81
2022/06/20 13:37:57;;;;;;;1.90;0.50;;;22.50;47.60;;;;;;5095043;28;20522;-82
2022/06/20 13:40:45;;;;;;;3.13;0.65;;;22.40;47.90;;;;;;5098253;28;20097;-81
2022/06/20 13:43:37;;;;;;;2.58;0.65;;;22.60;47.90;;;;;;5093529;28;20044;-80
2022/06/20 13:46:44;;;;;;;4.47;0.70;;;23.50;46.80;;;;;;5093605;28;20040;-82
2022/06/20 13:49:23;;;;;;;2.40;0.80;;;24.00;45.60;;;;;;5069321;28;20052;-81
2022/06/20 13:52:10;;;;;;;2.10;0.60;;;23.50;46.10;;;;;;5077276;28;20048;-80
2022/06/20 13:55:22;;;;;;;3.22;0.70;;;23.00;47.00;;;;;;5094246;28;20060;-81
2022/06/20 13:58:30;;;;;;;1.97;0.53;;;22.70;47.60;;;;;;5058838;28;20044;-82
2022/06/20 14:01:06;;;;;;;1.80;0.40;;;22.30;48.10;;;;;;5063536;28;20044;-80
2022/06/20 14:03:46;;;;;;;5.10;0.63;;;22.40;48.40;;;;;;5075427;28;20049;-79
2022/06/20 14:06:39;;;;;;;2.53;0.60;;;22.30;48.50;;;;;;5094283;28;20036;-79
2022/06/20 14:09:12;;;;;;;1.73;0.60;;;22.50;48.70;;;;;;5072669;28;20048;-79
2022/06/20 14:11:49;;;;;;;2.60;0.50;;;23.40;48.20;;;;;;5086341;28;20581;-83
2022/06/20 14:14:28;;;;;;;1.40;0.40;;;25.00;46.50;;;;;;5092846;28;20491;-79
2022/06/20 14:17:03;;;;;;;1.45;0.40;;;25.60;45.30;;;;;;5092885;28;20044;-78